Lansing, Kansas
Current Conditions -  °F | °C
As of 7:53 AM on Sunday 25 Jan 2015 (Local Time) from KMCI Reporting Station
Drizzle Drizzle  
Wind Chill: -3°   Ceiling: 1600
Heat Index:   Visibility: 5mi
Dew Point:   Wind: 17mph
Humidity: 89%   Direction: 310°NW
Pressure: 29.7"   Gusts: 28mph
Location:  39.24°N, 94.9°W
Report Text: KMCI 251353Z 31015G24KT 5SM -DZ BR OVC016 03/01 A2970 RMK AO2 PK WND 31026/1254 SLP059 P0001 T00280011
Loading
Personal Weather Stations






























Interactive Weather Map New forecast layout! Learn more

10-Day Weather Forecast

Advertisements
Track Severe Weather on mobile